Time;durP1;ratioP1;P1;durP2;ratioP2;P2;SDS_P1;SDS_P2;PMS_P1;PMS_P2;Temp;Humidity;BMP_temperature;BMP_pressure;BME280_temperature;BME280_humidity;BME280_pressure;Samples;Min_cycle;Max_cycle;Signal;HPM_P1;HPM_P2
2023/03/01 00:02:21;;;;;;;8.32;4.38;;;6.30;99.90;;;;;;5089458;28;20430;-73
2023/03/01 00:04:47;;;;;;;5.15;4.15;;;6.30;99.90;;;;;;5090295;28;20451;-74
2023/03/01 00:07:13;;;;;;;7.80;4.38;;;6.30;99.90;;;;;;5089857;28;20039;-76
2023/03/01 00:09:39;;;;;;;7.45;4.43;;;6.40;99.90;;;;;;5088752;28;20024;-74
2023/03/01 00:12:06;;;;;;;6.00;4.13;;;6.40;99.90;;;;;;5090444;28;20140;-74
2023/03/01 00:14:32;;;;;;;7.70;4.32;;;6.30;99.90;;;;;;5089954;28;20027;-74
2023/03/01 00:16:58;;;;;;;7.82;4.75;;;6.40;99.90;;;;;;5090734;28;20028;-74
2023/03/01 00:19:23;;;;;;;7.70;4.85;;;6.30;99.90;;;;;;5089734;28;20027;-73
2023/03/01 00:21:49;;;;;;;7.88;5.00;;;6.30;99.90;;;;;;5088663;28;20131;-73
2023/03/01 00:24:15;;;;;;;7.20;5.15;;;6.30;99.90;;;;;;5089576;28;20036;-73
2023/03/01 00:26:41;;;;;;;7.15;5.32;;;6.30;99.90;;;;;;5090694;28;20028;-74
2023/03/01 00:29:07;;;;;;;9.57;5.13;;;6.30;99.90;;;;;;5090298;28;20443;-72
2023/03/01 00:31:33;;;;;;;9.05;5.32;;;6.30;99.90;;;;;;5089585;28;20043;-73
2023/03/01 00:34:04;;;;;;;7.50;5.07;;;6.30;99.90;;;;;;5090285;28;20028;-74
2023/03/01 00:36:32;;;;;;;7.18;5.20;;;6.30;99.90;;;;;;5090024;28;20139;-74
2023/03/01 00:38:58;;;;;;;7.88;5.38;;;6.40;99.90;;;;;;5090094;28;20119;-73
2023/03/01 00:41:26;;;;;;;7.47;5.13;;;6.30;99.90;;;;;;5089655;28;20024;-74
2023/03/01 00:43:53;;;;;;;7.63;5.32;;;6.30;99.90;;;;;;5089508;28;20041;-73
2023/03/01 00:46:24;;;;;;;7.38;5.30;;;6.40;99.90;;;;;;5089505;28;20047;-74
2023/03/01 00:48:51;;;;;;;8.48;5.18;;;6.40;99.90;;;;;;5093790;28;20449;-73
2023/03/01 00:51:20;;;;;;;8.48;5.20;;;6.40;99.90;;;;;;5095085;28;20040;-74
2023/03/01 00:53:47;;;;;;;5.25;2.80;;;6.40;99.90;;;;;;5095377;28;20032;-74
2023/03/01 00:56:14;;;;;;;4.63;2.17;;;6.50;99.90;;;;;;5095149;28;20032;-72
2023/03/01 00:58:40;;;;;;;4.50;0.80;;;6.60;99.90;;;;;;5093872;28;20103;-73
2023/03/01 01:01:18;;;;;;;2.60;0.60;;;6.80;99.90;;;;;;5095547;28;20028;-74
2023/03/01 01:03:46;;;;;;;4.55;0.70;;;7.00;99.90;;;;;;5094776;28;20028;-74
2023/03/01 01:06:18;;;;;;;4.70;0.90;;;7.20;99.90;;;;;;5094106;28;20058;-74
2023/03/01 01:08:44;;;;;;;1.95;0.90;;;7.20;99.90;;;;;;5093380;28;20431;-74
2023/03/01 01:11:11;;;;;;;2.05;0.65;;;7.20;99.90;;;;;;5093835;28;20103;-74
2023/03/01 01:13:38;;;;;;;2.28;0.75;;;7.30;99.90;;;;;;5093397;28;20136;-74
2023/03/01 01:16:05;;;;;;;0.75;0.40;;;7.30;99.90;;;;;;5093954;28;20392;-74
2023/03/01 01:18:30;;;;;;;2.30;0.50;;;7.20;99.90;;;;;;5093613;28;20055;-74
2023/03/01 01:20:56;;;;;;;4.00;0.70;;;7.20;99.90;;;;;;5093538;28;20117;-73
2023/03/01 01:23:22;;;;;;;1.95;0.45;;;7.20;99.90;;;;;;5093150;28;20052;-74
2023/03/01 01:25:47;;;;;;;1.52;0.47;;;7.20;99.90;;;;;;5093210;28;20032;-73
2023/03/01 01:28:14;;;;;;;3.20;0.47;;;7.20;99.90;;;;;;5093246;28;20031;-73
2023/03/01 01:30:40;;;;;;;3.33;0.45;;;7.20;99.90;;;;;;5093232;28;20043;-72
2023/03/01 01:33:06;;;;;;;1.80;0.75;;;7.20;99.90;;;;;;5093521;28;20370;-73
2023/03/01 01:35:31;;;;;;;2.70;0.88;;;7.20;99.90;;;;;;5092771;28;20170;-73
2023/03/01 01:37:57;;;;;;;2.08;0.60;;;7.10;99.90;;;;;;5092914;28;20389;-72
2023/03/01 01:40:23;;;;;;;2.40;0.43;;;7.20;99.90;;;;;;5090979;28;20028;-73
2023/03/01 01:42:48;;;;;;;1.92;0.50;;;7.20;99.90;;;;;;5093036;28;20024;-73
2023/03/01 01:45:35;;;;;;;2.20;0.77;;;7.10;99.90;;;;;;5092689;28;20032;-72
2023/03/01 01:48:06;;;;;;;1.35;0.70;;;7.20;99.90;;;;;;5092863;28;20099;-72
2023/03/01 01:50:37;;;;;;;2.13;0.43;;;7.20;99.90;;;;;;5090992;28;20020;-73
2023/03/01 01:53:10;;;;;;;1.33;0.65;;;7.20;99.90;;;;;;5092816;28;20081;-73
2023/03/01 01:55:39;;;;;;;1.88;0.60;;;7.10;99.90;;;;;;5092512;28;20024;-73
2023/03/01 01:58:08;;;;;;;2.03;0.55;;;7.20;99.90;;;;;;5092913;28;20031;-73
2023/03/01 02:00:34;;;;;;;1.42;0.70;;;7.20;99.90;;;;;;5092105;28;20032;-73
2023/03/01 02:03:06;;;;;;;1.52;0.40;;;7.20;99.90;;;;;;5092388;28;20020;-74
2023/03/01 02:05:53;;;;;;;1.88;0.52;;;7.20;99.90;;;;;;5092330;28;20029;-73
2023/03/01 02:08:20;;;;;;;0.82;0.52;;;7.20;99.90;;;;;;5092654;28;20031;-78
2023/03/01 02:10:47;;;;;;;0.88;0.40;;;7.20;99.90;;;;;;5092321;28;20350;-73
2023/03/01 02:13:13;;;;;;;1.58;0.75;;;7.20;99.90;;;;;;5092310;28;20048;-75
2023/03/01 02:15:41;;;;;;;1.33;0.60;;;7.20;99.90;;;;;;5092108;28;20056;-74
2023/03/01 02:18:10;;;;;;;2.05;0.60;;;7.20;99.90;;;;;;5092550;28;20551;-74
2023/03/01 02:20:47;;;;;;;2.53;0.50;;;7.20;99.90;;;;;;5091364;28;20054;-75
2023/03/01 02:23:13;;;;;;;4.40;0.80;;;7.20;99.90;;;;;;5092640;28;20129;-73
2023/03/01 02:26:24;;;;;;;4.60;0.93;;;7.20;99.90;;;;;;5091406;28;20846;-73
2023/03/01 02:28:50;;;;;;;2.92;0.55;;;7.10;99.90;;;;;;5081571;28;20028;-72
2023/03/01 02:34:05;;;;;;;2.80;0.68;;;7.10;99.90;;;;;;5092317;28;20128;-73
2023/03/01 02:36:47;;;;;;;3.90;0.82;;;7.10;99.90;;;;;;5089978;28;20039;-73
2023/03/01 02:39:21;;;;;;;2.38;1.05;;;7.10;99.90;;;;;;5092024;28;20146;-74
2023/03/01 02:41:51;;;;;;;2.00;0.75;;;7.10;99.90;;;;;;5092024;28;20031;-73
2023/03/01 02:44:17;;;;;;;3.60;0.60;;;7.10;99.90;;;;;;5092314;28;20044;-74
2023/03/01 02:46:46;;;;;;;1.33;0.40;;;7.10;99.90;;;;;;5091093;28;20106;-74
2023/03/01 02:49:27;;;;;;;3.85;0.50;;;7.00;99.90;;;;;;5090083;28;20028;-74
2023/03/01 02:52:23;;;;;;;0.28;0.20;;;7.10;99.90;;;;;;5091610;28;20032;-72
2023/03/01 02:55:02;;;;;;;1.15;0.40;;;7.00;99.90;;;;;;5091608;28;20510;-72
2023/03/01 02:57:30;;;;;;;2.13;0.60;;;7.10;99.90;;;;;;5090756;28;20027;-74
2023/03/01 02:59:57;;;;;;;1.45;0.50;;;7.10;99.90;;;;;;5091684;28;20035;-73
2023/03/01 03:02:35;;;;;;;3.28;0.43;;;7.10;99.90;;;;;;5090987;28;20118;-76
2023/03/01 03:05:10;;;;;;;1.98;0.40;;;7.10;99.90;;;;;;5091480;28;20425;-72
2023/03/01 03:07:39;;;;;;;2.00;0.40;;;7.10;99.90;;;;;;5091022;28;20035;-74
2023/03/01 03:10:07;;;;;;;2.60;0.50;;;7.10;99.90;;;;;;5090834;28;20023;-73
2023/03/01 03:12:33;;;;;;;4.38;0.50;;;7.10;99.90;;;;;;5091171;28;20040;-73
2023/03/01 03:14:58;;;;;;;3.92;0.60;;;7.10;99.90;;;;;;5090021;28;20035;-74
2023/03/01 03:17:24;;;;;;;1.92;0.40;;;7.10;99.90;;;;;;5090934;28;20054;-77
2023/03/01 03:19:50;;;;;;;4.97;0.60;;;7.10;99.90;;;;;;5091451;28;20082;-73
2023/03/01 03:22:16;;;;;;;2.10;0.40;;;7.20;99.90;;;;;;5091047;28;20055;-73
2023/03/01 03:24:42;;;;;;;1.80;0.50;;;7.20;99.90;;;;;;5090705;28;20035;-73
2023/03/01 03:27:08;;;;;;;1.35;0.60;;;7.20;99.90;;;;;;5090840;28;20113;-74
2023/03/01 03:29:34;;;;;;;3.45;0.90;;;7.10;99.90;;;;;;5090455;28;20118;-74
2023/03/01 03:32:00;;;;;;;3.05;0.60;;;7.10;99.90;;;;;;5091190;28;20035;-72
2023/03/01 03:34:25;;;;;;;2.53;0.55;;;7.10;99.90;;;;;;5088835;28;20401;-77
2023/03/01 03:36:59;;;;;;;2.40;0.40;;;7.10;99.90;;;;;;5090633;28;20032;-73
2023/03/01 03:39:26;;;;;;;3.95;0.68;;;7.10;99.90;;;;;;5090870;28;20032;-76
2023/03/01 03:41:53;;;;;;;2.00;0.47;;;7.10;99.90;;;;;;5090395;28;20028;-73
2023/03/01 03:44:19;;;;;;;1.95;0.45;;;7.00;99.90;;;;;;5090818;28;20378;-73
2023/03/01 03:46:44;;;;;;;3.42;0.60;;;7.10;99.90;;;;;;5090656;28;20450;-72
2023/03/01 03:49:10;;;;;;;5.30;0.68;;;7.00;99.90;;;;;;5090800;28;20102;-73
2023/03/01 03:51:36;;;;;;;2.00;0.50;;;7.00;99.90;;;;;;5090834;28;20028;-74
2023/03/01 03:54:02;;;;;;;4.82;1.02;;;7.00;99.90;;;;;;5090984;28;20071;-73
2023/03/01 03:56:27;;;;;;;3.17;0.80;;;7.00;99.90;;;;;;5090681;28;20124;-77
2023/03/01 03:58:53;;;;;;;2.25;0.75;;;7.00;99.90;;;;;;5089528;28;20086;-73
2023/03/01 04:01:19;;;;;;;2.75;0.50;;;6.90;99.90;;;;;;5090796;28;20364;-73
2023/03/01 04:03:47;;;;;;;4.20;0.60;;;6.90;99.90;;;;;;5090092;28;20099;-73
2023/03/01 04:06:14;;;;;;;1.85;0.40;;;6.90;99.90;;;;;;5090904;28;20054;-73
2023/03/01 04:08:40;;;;;;;2.30;0.70;;;6.90;99.90;;;;;;5090103;28;20032;-73
2023/03/01 04:13:53;;;;;;;1.38;0.40;;;6.90;99.90;;;;;;5090088;28;20488;-75
2023/03/01 04:16:19;;;;;;;1.35;0.43;;;6.90;99.90;;;;;;5090548;28;20145;-74
2023/03/01 04:18:45;;;;;;;1.63;0.47;;;6.80;99.90;;;;;;5089704;28;20057;-74
2023/03/01 04:21:11;;;;;;;0.88;0.40;;;6.80;99.90;;;;;;5090646;28;20023;-74
2023/03/01 04:23:38;;;;;;;3.08;0.52;;;6.90;99.90;;;;;;5094244;28;20076;-73
2023/03/01 04:26:03;;;;;;;2.25;0.88;;;6.90;99.90;;;;;;5094505;28;20047;-73
2023/03/01 04:28:35;;;;;;;3.15;0.55;;;6.80;99.90;;;;;;5094039;28;20024;-77
2023/03/01 04:31:15;;;;;;;0.45;0.30;;;6.80;99.90;;;;;;5094734;28;20378;-73
2023/03/01 04:33:55;;;;;;;1.08;0.50;;;6.90;99.90;;;;;;5094068;28;20042;-73
2023/03/01 04:36:24;;;;;;;1.65;0.40;;;6.90;99.90;;;;;;5094440;28;20074;-74
2023/03/01 04:38:51;;;;;;;1.30;0.60;;;6.90;99.90;;;;;;5093653;28;20103;-74
2023/03/01 04:41:19;;;;;;;1.55;0.38;;;6.90;99.90;;;;;;5094332;28;20047;-73
2023/03/01 04:43:45;;;;;;;3.25;0.70;;;6.90;99.90;;;;;;5093510;28;20327;-74
2023/03/01 04:46:13;;;;;;;3.83;0.82;;;6.80;99.90;;;;;;5094105;28;20036;-75
2023/03/01 04:48:40;;;;;;;1.98;0.40;;;6.80;99.90;;;;;;5093652;28;20134;-74
2023/03/01 04:51:07;;;;;;;0.43;0.30;;;6.80;99.90;;;;;;5094123;28;20024;-74
2023/03/01 04:53:33;;;;;;;1.83;0.40;;;6.80;99.90;;;;;;5093355;28;20121;-76
2023/03/01 04:55:59;;;;;;;2.63;0.70;;;6.80;99.90;;;;;;5094243;28;20124;-74
2023/03/01 04:58:27;;;;;;;2.30;0.30;;;6.80;99.90;;;;;;5093834;28;20023;-73
2023/03/01 05:00:53;;;;;;;1.67;0.50;;;6.80;99.90;;;;;;5093277;28;20028;-73
2023/03/01 05:03:20;;;;;;;3.45;0.70;;;6.80;99.90;;;;;;5093726;28;20134;-73
2023/03/01 05:05:49;;;;;;;2.30;0.50;;;6.80;99.90;;;;;;5093033;28;20040;-74
2023/03/01 05:08:18;;;;;;;3.03;0.40;;;6.80;99.90;;;;;;5092533;28;20024;-73
2023/03/01 05:10:46;;;;;;;1.20;0.52;;;6.80;99.90;;;;;;5093212;28;20107;-73
2023/03/01 05:13:14;;;;;;;2.05;0.65;;;6.80;99.90;;;;;;5093306;28;20470;-72
2023/03/01 05:15:40;;;;;;;1.23;0.50;;;6.80;99.90;;;;;;5092652;28;20375;-73
2023/03/01 05:18:11;;;;;;;4.15;0.68;;;6.80;99.90;;;;;;5094038;28;20028;-73
2023/03/01 05:20:37;;;;;;;2.20;0.47;;;6.80;99.90;;;;;;5091529;28;20358;-74
2023/03/01 05:23:05;;;;;;;1.88;0.52;;;6.80;99.90;;;;;;5092952;28;20110;-74
2023/03/01 05:25:32;;;;;;;2.50;1.30;;;6.80;99.90;;;;;;5092005;28;20130;-73
2023/03/01 05:28:05;;;;;;;3.42;0.85;;;6.80;99.90;;;;;;5091411;28;20339;-72
2023/03/01 05:30:35;;;;;;;3.33;0.50;;;6.70;99.90;;;;;;5093223;28;20450;-74
2023/03/01 05:33:01;;;;;;;4.28;1.00;;;6.80;99.90;;;;;;5092860;28;20016;-73
2023/03/01 05:35:27;;;;;;;2.42;0.60;;;6.80;99.90;;;;;;5095043;28;20032;-73
2023/03/01 05:37:53;;;;;;;2.70;0.52;;;6.80;99.90;;;;;;5093647;28;20024;-73
2023/03/01 05:40:22;;;;;;;5.45;0.70;;;6.80;99.90;;;;;;5095100;28;20053;-74
2023/03/01 05:42:53;;;;;;;2.95;0.80;;;6.80;99.90;;;;;;5094096;28;20394;-75
2023/03/01 05:45:20;;;;;;;2.57;0.77;;;6.80;99.90;;;;;;5093994;28;20181;-73
2023/03/01 05:47:48;;;;;;;1.50;0.60;;;6.80;99.90;;;;;;5096176;28;20107;-74
2023/03/01 05:50:19;;;;;;;1.05;0.60;;;6.80;99.90;;;;;;5095074;28;20035;-74
2023/03/01 05:52:49;;;;;;;4.23;0.70;;;6.80;99.90;;;;;;5092787;28;20028;-74
2023/03/01 05:55:17;;;;;;;1.83;0.47;;;6.80;99.90;;;;;;5093287;28;20489;-73
2023/03/01 05:57:43;;;;;;;3.53;0.63;;;6.80;99.90;;;;;;5093310;28;20028;-73
2023/03/01 06:00:10;;;;;;;4.43;0.73;;;6.80;99.90;;;;;;5092733;28;20350;-73
2023/03/01 06:02:36;;;;;;;3.20;0.65;;;6.80;99.90;;;;;;5092487;28;20036;-77
2023/03/01 06:05:02;;;;;;;1.65;0.50;;;6.80;99.90;;;;;;5092247;28;20484;-72
2023/03/01 06:07:28;;;;;;;4.15;0.80;;;6.80;99.90;;;;;;5092553;28;20462;-72
2023/03/01 06:09:53;;;;;;;2.22;0.80;;;6.70;99.90;;;;;;5091825;28;20028;-73
2023/03/01 06:12:19;;;;;;;5.32;0.98;;;6.70;99.90;;;;;;5092411;28;20050;-73
2023/03/01 06:14:47;;;;;;;3.85;1.10;;;6.70;99.90;;;;;;5091353;28;20427;-72
2023/03/01 06:17:12;;;;;;;1.85;0.65;;;6.70;99.90;;;;;;5092277;28;20044;-73
2023/03/01 06:19:38;;;;;;;4.45;0.90;;;6.70;99.90;;;;;;5091679;28;20063;-76
2023/03/01 06:22:04;;;;;;;3.65;1.52;;;6.70;99.90;;;;;;5092102;28;20044;-74
2023/03/01 06:24:29;;;;;;;3.10;0.70;;;6.70;99.90;;;;;;5092604;28;20192;-73
2023/03/01 06:26:55;;;;;;;2.47;0.80;;;6.60;99.90;;;;;;5091728;28;20028;-74
2023/03/01 06:29:22;;;;;;;4.20;0.70;;;6.60;99.90;;;;;;5092112;28;20035;-73
2023/03/01 06:31:48;;;;;;;4.10;0.90;;;6.60;99.90;;;;;;5091438;28;20103;-73
2023/03/01 06:34:15;;;;;;;2.20;0.60;;;6.60;99.90;;;;;;5092140;28;20050;-73
2023/03/01 06:36:40;;;;;;;3.13;0.70;;;6.60;99.90;;;;;;5091414;28;20050;-74
2023/03/01 06:39:07;;;;;;;4.85;0.90;;;6.60;99.90;;;;;;5091843;28;20024;-72
2023/03/01 06:41:33;;;;;;;3.72;1.17;;;6.60;99.90;;;;;;5092015;28;20059;-73
2023/03/01 06:43:59;;;;;;;5.95;1.67;;;6.60;99.90;;;;;;5090501;28;20652;-72
2023/03/01 06:46:25;;;;;;;3.75;0.90;;;6.60;99.90;;;;;;5090893;28;20020;-74
2023/03/01 06:48:51;;;;;;;6.82;1.45;;;6.60;99.90;;;;;;5090822;28;20026;-72
2023/03/01 06:51:17;;;;;;;4.28;0.80;;;6.70;99.90;;;;;;5072988;28;20027;-74
2023/03/01 06:53:42;;;;;;;5.35;0.80;;;6.60;99.90;;;;;;5090458;28;20359;-73
2023/03/01 06:56:08;;;;;;;2.17;0.80;;;6.60;99.90;;;;;;5091180;28;20032;-72
2023/03/01 06:58:34;;;;;;;3.80;0.55;;;6.60;99.90;;;;;;5091328;28;20025;-72
2023/03/01 07:00:59;;;;;;;2.05;0.80;;;6.60;99.90;;;;;;5089150;28;20671;-73
2023/03/01 07:03:25;;;;;;;2.40;0.73;;;6.70;99.90;;;;;;5091118;28;20046;-73
2023/03/01 07:05:52;;;;;;;3.25;0.70;;;6.70;99.90;;;;;;5090408;28;20354;-73
2023/03/01 07:08:18;;;;;;;2.72;0.80;;;6.70;99.90;;;;;;5091245;28;20039;-74
2023/03/01 07:10:44;;;;;;;1.55;0.70;;;6.70;99.90;;;;;;5090791;28;20099;-73
2023/03/01 07:13:10;;;;;;;8.85;0.93;;;6.70;99.90;;;;;;5091311;28;20109;-74
2023/03/01 07:15:36;;;;;;;4.63;0.93;;;6.70;99.90;;;;;;5091335;28;20114;-73
2023/03/01 07:18:02;;;;;;;3.42;0.90;;;6.80;99.90;;;;;;5090316;28;20020;-73
2023/03/01 07:20:28;;;;;;;4.65;0.80;;;6.70;99.90;;;;;;5090779;28;20031;-73
2023/03/01 07:22:58;;;;;;;2.65;0.50;;;6.70;99.90;;;;;;5090330;28;20040;-74
2023/03/01 07:25:24;;;;;;;2.70;1.05;;;6.70;99.90;;;;;;5090897;28;20036;-73
2023/03/01 07:27:53;;;;;;;5.05;0.63;;;6.70;99.90;;;;;;5090416;28;20036;-72
2023/03/01 07:30:20;;;;;;;3.78;0.60;;;6.70;99.90;;;;;;5088523;28;20032;-75
2023/03/01 07:32:46;;;;;;;4.10;0.88;;;6.70;99.90;;;;;;5089810;28;20082;-73
2023/03/01 07:35:12;;;;;;;6.85;1.00;;;6.80;99.90;;;;;;5090673;28;20027;-72
2023/03/01 07:37:38;;;;;;;1.73;0.68;;;6.80;99.90;;;;;;5090360;28;20438;-73
2023/03/01 07:40:04;;;;;;;2.88;0.95;;;6.70;99.90;;;;;;5090436;28;20042;-73
2023/03/01 07:42:29;;;;;;;4.03;0.82;;;6.80;99.90;;;;;;5090197;28;20028;-75
2023/03/01 07:44:55;;;;;;;4.82;0.90;;;6.80;99.90;;;;;;5089522;28;20032;-74
2023/03/01 07:47:21;;;;;;;1.73;0.47;;;6.80;99.90;;;;;;5090518;28;20450;-73
2023/03/01 07:49:46;;;;;;;3.67;0.90;;;6.80;99.90;;;;;;5089727;28;20028;-73
2023/03/01 07:52:12;;;;;;;4.03;0.77;;;6.80;99.90;;;;;;5090341;28;20040;-73
2023/03/01 07:54:38;;;;;;;2.13;0.70;;;6.80;99.90;;;;;;5090539;28;20108;-73
2023/03/01 07:57:04;;;;;;;1.67;0.80;;;6.80;99.90;;;;;;5089591;28;20072;-73
2023/03/01 07:59:30;;;;;;;4.50;0.70;;;6.80;99.90;;;;;;5090415;28;20023;-73
2023/03/01 08:01:56;;;;;;;1.92;0.70;;;6.80;99.90;;;;;;5089737;28;20025;-73
2023/03/01 08:04:24;;;;;;;1.30;0.80;;;6.90;99.90;;;;;;5088685;28;20047;-73
2023/03/01 08:06:50;;;;;;;6.80;1.00;;;6.90;99.90;;;;;;5089588;28;20101;-74
2023/03/01 08:09:16;;;;;;;2.58;1.08;;;6.90;99.90;;;;;;5090169;28;20038;-73
2023/03/01 08:11:42;;;;;;;2.80;1.00;;;6.90;99.90;;;;;;5090232;28;20024;-73
2023/03/01 08:14:08;;;;;;;1.48;0.57;;;6.90;99.90;;;;;;5088247;28;20058;-73
2023/03/01 08:16:35;;;;;;;4.70;1.33;;;6.90;99.90;;;;;;5088447;28;20028;-72
2023/03/01 08:19:11;;;;;;;3.40;0.52;;;6.90;99.90;;;;;;5088981;28;20456;-73
2023/03/01 08:21:37;;;;;;;1.60;0.60;;;6.90;99.90;;;;;;5089909;28;20455;-73
2023/03/01 08:24:05;;;;;;;3.35;0.60;;;6.90;99.90;;;;;;5089693;28;20083;-73
2023/03/01 08:26:32;;;;;;;2.92;0.75;;;6.90;99.90;;;;;;5089689;28;20382;-74
2023/03/01 08:28:58;;;;;;;6.55;1.00;;;6.90;99.90;;;;;;5089435;28;20055;-73
2023/03/01 08:31:36;;;;;;;3.10;0.35;;;6.90;99.90;;;;;;5090101;28;20055;-72
2023/03/01 08:34:05;;;;;;;4.68;0.70;;;6.90;99.90;;;;;;5089301;28;20017;-73
2023/03/01 08:36:42;;;;;;;2.30;0.50;;;6.90;99.90;;;;;;5089665;28;20447;-73
2023/03/01 08:39:10;;;;;;;2.35;0.50;;;6.90;99.90;;;;;;5089234;28;20721;-73
2023/03/01 08:41:37;;;;;;;8.80;0.70;;;6.90;99.90;;;;;;5090148;28;20363;-73
2023/03/01 08:44:03;;;;;;;2.92;0.80;;;6.90;99.90;;;;;;5089641;28;20411;-73
2023/03/01 08:46:32;;;;;;;4.20;0.90;;;6.90;99.90;;;;;;5090106;28;20026;-73
2023/03/01 08:48:57;;;;;;;0.52;0.35;;;6.90;99.90;;;;;;5088988;28;20475;-74
2023/03/01 08:51:24;;;;;;;2.97;0.73;;;6.80;99.90;;;;;;5087716;28;20162;-73
2023/03/01 08:53:50;;;;;;;3.17;1.00;;;6.80;99.90;;;;;;5088747;28;20131;-75
2023/03/01 08:56:18;;;;;;;1.08;0.70;;;6.90;99.90;;;;;;5088798;28;20047;-73
2023/03/01 08:58:48;;;;;;;4.38;0.90;;;6.90;99.90;;;;;;5088643;28;20038;-73
2023/03/01 09:01:16;;;;;;;5.20;0.82;;;6.90;99.90;;;;;;5090121;28;20101;-73
2023/03/01 09:03:43;;;;;;;1.27;0.80;;;6.90;99.90;;;;;;5089975;28;20052;-73
2023/03/01 09:06:09;;;;;;;3.42;0.77;;;6.90;99.90;;;;;;5089358;28;20655;-73
2023/03/01 09:08:41;;;;;;;1.25;0.47;;;7.00;99.90;;;;;;5092020;28;20106;-73
2023/03/01 09:11:09;;;;;;;3.95;0.90;;;7.00;99.90;;;;;;5093296;28;20047;-73
2023/03/01 09:13:35;;;;;;;6.05;1.02;;;7.00;99.90;;;;;;5093808;28;20052;-73
2023/03/01 09:16:03;;;;;;;2.22;0.80;;;7.10;99.90;;;;;;5093220;28;20024;-73
2023/03/01 09:18:29;;;;;;;1.50;0.70;;;7.10;99.90;;;;;;5092581;28;20362;-73
2023/03/01 09:21:07;;;;;;;1.13;0.52;;;7.10;99.90;;;;;;5092565;28;20028;-73
2023/03/01 09:23:38;;;;;;;3.00;0.80;;;7.10;99.90;;;;;;5093670;28;20054;-74
2023/03/01 09:26:18;;;;;;;1.90;0.45;;;7.20;99.90;;;;;;5091404;28;20115;-73
2023/03/01 09:28:45;;;;;;;6.05;0.90;;;7.20;99.90;;;;;;5093438;28;20021;-73
2023/03/01 09:31:14;;;;;;;2.78;0.60;;;7.20;99.90;;;;;;5092408;28;20084;-73
2023/03/01 09:33:41;;;;;;;0.98;0.40;;;7.20;99.90;;;;;;5093804;28;20031;-71
2023/03/01 09:36:12;;;;;;;3.08;0.55;;;7.20;99.90;;;;;;5093218;28;20028;-72
2023/03/01 09:38:38;;;;;;;3.20;0.40;;;7.00;99.90;;;;;;5093440;28;20027;-72
2023/03/01 09:41:28;;;;;;;2.22;0.40;;;7.00;99.90;;;;;;5092833;28;20038;-73
2023/03/01 09:44:04;;;;;;;1.90;0.50;;;7.00;99.90;;;;;;5092659;28;20024;-74
2023/03/01 09:46:42;;;;;;;1.35;0.40;;;7.10;99.90;;;;;;5093071;28;20032;-73
2023/03/01 09:49:16;;;;;;;1.88;0.50;;;7.20;99.90;;;;;;5092598;28;20139;-72
2023/03/01 09:51:48;;;;;;;3.58;0.55;;;7.30;99.90;;;;;;5091826;28;20355;-72
2023/03/01 09:54:14;;;;;;;4.45;0.47;;;7.30;99.90;;;;;;5091801;28;20032;-73
2023/03/01 09:56:45;;;;;;;5.22;0.60;;;7.30;99.90;;;;;;5092349;28;20036;-76
2023/03/01 09:59:14;;;;;;;3.22;0.70;;;7.30;99.90;;;;;;5091436;28;20024;-72
2023/03/01 10:01:58;;;;;;;5.07;0.75;;;7.30;99.90;;;;;;5092721;28;20047;-72
2023/03/01 10:04:36;;;;;;;3.28;0.70;;;7.20;99.90;;;;;;5092139;28;20418;-72
2023/03/01 10:07:26;;;;;;;5.10;0.55;;;7.10;99.90;;;;;;5091880;28;20063;-73
2023/03/01 10:09:52;;;;;;;2.50;0.80;;;7.20;99.90;;;;;;5092672;28;20027;-76
2023/03/01 10:12:25;;;;;;;1.55;0.50;;;7.20;99.90;;;;;;5092127;28;20024;-73
2023/03/01 10:15:02;;;;;;;5.65;0.82;;;7.30;99.90;;;;;;5092607;28;20023;-73
2023/03/01 10:17:31;;;;;;;2.88;0.50;;;7.30;99.90;;;;;;5092438;28;20028;-73
2023/03/01 10:20:13;;;;;;;2.22;0.57;;;7.40;99.90;;;;;;5091870;28;20016;-73
2023/03/01 10:22:39;;;;;;;6.70;0.60;;;7.30;99.90;;;;;;5091893;28;20048;-73
2023/03/01 10:25:05;;;;;;;4.22;0.40;;;7.30;99.90;;;;;;5091696;28;20062;-73
2023/03/01 10:27:43;;;;;;;2.05;0.57;;;7.30;99.90;;;;;;5091168;28;20454;-73
2023/03/01 10:30:34;;;;;;;0.40;0.32;;;7.20;99.90;;;;;;5091810;28;20116;-73
2023/03/01 10:33:00;;;;;;;2.05;0.40;;;7.20;99.90;;;;;;5091904;28;20037;-74
2023/03/01 10:35:32;;;;;;;1.38;0.40;;;7.10;99.90;;;;;;5092046;28;20386;-73
2023/03/01 10:38:04;;;;;;;1.67;0.40;;;7.20;99.90;;;;;;5092021;28;20035;-73
2023/03/01 10:40:31;;;;;;;2.15;0.70;;;7.20;99.90;;;;;;5092229;28;20111;-73
2023/03/01 10:42:59;;;;;;;1.13;0.35;;;7.20;99.90;;;;;;5091567;28;20032;-74
2023/03/01 10:45:39;;;;;;;4.50;0.85;;;7.10;99.90;;;;;;5092250;28;20032;-73
2023/03/01 10:48:13;;;;;;;3.53;0.50;;;7.20;99.90;;;;;;5092037;28;20105;-73
2023/03/01 10:50:44;;;;;;;0.73;0.38;;;7.30;99.90;;;;;;5091999;28;20027;-72
2023/03/01 10:53:29;;;;;;;3.65;0.52;;;7.40;99.90;;;;;;5092080;28;20485;-74
2023/03/01 10:56:04;;;;;;;1.67;0.25;;;7.50;99.90;;;;;;5093286;28;20028;-74
2023/03/01 10:58:32;;;;;;;0.82;0.40;;;7.60;99.90;;;;;;5093599;28;20084;-74
2023/03/01 11:01:17;;;;;;;1.98;0.60;;;7.70;99.90;;;;;;5091743;28;20530;-78
2023/03/01 11:03:43;;;;;;;2.03;0.50;;;7.80;99.90;;;;;;5093726;28;20047;-74
2023/03/01 11:06:12;;;;;;;6.45;0.93;;;7.90;99.90;;;;;;5093744;28;20062;-72
2023/03/01 11:08:49;;;;;;;1.92;0.32;;;8.00;99.90;;;;;;5095757;28;20040;-73
2023/03/01 11:11:21;;;;;;;2.35;0.68;;;8.10;99.90;;;;;;5092585;28;20046;-72
2023/03/01 11:13:54;;;;;;;2.97;0.60;;;8.20;99.90;;;;;;5092854;28;20024;-72
2023/03/01 11:16:26;;;;;;;1.85;0.47;;;8.20;99.90;;;;;;5091763;28;20028;-74
2023/03/01 11:19:10;;;;;;;3.63;0.70;;;8.20;99.90;;;;;;5092768;28;20467;-73
2023/03/01 11:21:44;;;;;;;2.60;0.63;;;8.20;99.90;;;;;;5091941;28;20063;-72
2023/03/01 11:24:15;;;;;;;1.17;0.40;;;8.00;99.90;;;;;;5091410;28;20050;-73
2023/03/01 11:26:45;;;;;;;2.00;0.52;;;8.00;99.90;;;;;;5092249;28;20032;-73
2023/03/01 11:29:35;;;;;;;3.78;0.60;;;8.10;99.90;;;;;;5090214;28;20413;-73
2023/03/01 11:32:07;;;;;;;2.25;0.50;;;8.20;99.90;;;;;;5091107;28;20020;-74
2023/03/01 11:34:42;;;;;;;4.07;0.50;;;8.30;99.90;;;;;;5092361;28;20047;-73
2023/03/01 11:37:24;;;;;;;4.07;0.60;;;8.20;99.90;;;;;;5091360;28;20401;-73
2023/03/01 11:39:50;;;;;;;1.85;0.32;;;8.20;99.90;;;;;;5091948;28;20028;-73
2023/03/01 11:42:20;;;;;;;2.53;0.40;;;8.20;99.90;;;;;;5091361;28;20103;-73
2023/03/01 11:44:54;;;;;;;2.25;0.40;;;8.10;99.90;;;;;;5090894;28;20054;-73
2023/03/01 11:47:44;;;;;;;1.10;0.50;;;8.10;99.90;;;;;;5090160;28;20032;-73
2023/03/01 11:50:30;;;;;;;1.17;0.60;;;8.20;99.90;;;;;;5089495;28;20036;-73
2023/03/01 11:53:03;;;;;;;1.85;0.57;;;8.30;99.90;;;;;;5090692;28;20114;-73
2023/03/01 11:55:44;;;;;;;1.70;0.30;;;8.20;99.90;;;;;;5090344;28;20032;-74
2023/03/01 11:58:53;;;;;;;0.63;0.28;;;8.20;99.90;;;;;;5088128;28;20501;-74
2023/03/01 12:01:25;;;;;;;2.28;0.52;;;8.10;99.90;;;;;;5090044;28;20080;-73
2023/03/01 12:04:45;;;;;;;4.80;0.63;;;8.20;99.90;;;;;;5089711;28;20035;-74
2023/03/01 12:07:35;;;;;;;3.45;0.50;;;8.30;99.90;;;;;;5066568;28;20862;-73
2023/03/01 12:10:06;;;;;;;1.55;0.22;;;8.30;99.90;;;;;;5088439;28;20115;-76
2023/03/01 12:12:47;;;;;;;2.08;0.40;;;8.30;99.90;;;;;;5089690;28;20028;-72
2023/03/01 12:15:47;;;;;;;1.92;0.93;;;8.20;99.90;;;;;;5089365;28;20134;-72
2023/03/01 12:18:28;;;;;;;1.48;0.25;;;8.20;99.90;;;;;;5089332;28;20030;-73
2023/03/01 12:21:18;;;;;;;2.70;0.52;;;8.10;99.90;;;;;;5088239;28;20024;-73
2023/03/01 12:23:55;;;;;;;1.35;0.32;;;8.20;99.90;;;;;;5089620;28;20462;-72
2023/03/01 12:26:55;;;;;;;0.95;0.40;;;8.10;99.90;;;;;;5089146;28;20024;-72
2023/03/01 12:29:34;;;;;;;1.60;0.40;;;8.20;99.90;;;;;;5087587;28;20043;-72
2023/03/01 12:32:19;;;;;;;1.58;0.65;;;8.10;99.90;;;;;;5089652;28;20107;-76
2023/03/01 12:35:07;;;;;;;2.95;0.70;;;8.20;99.90;;;;;;5089752;28;20032;-73
2023/03/01 12:37:35;;;;;;;1.92;0.40;;;8.30;99.90;;;;;;5089806;28;20036;-73
2023/03/01 12:40:18;;;;;;;2.60;0.52;;;8.30;99.90;;;;;;5089124;28;20403;-77
2023/03/01 12:43:02;;;;;;;1.17;0.43;;;8.40;99.90;;;;;;5090841;28;20342;-73
2023/03/01 12:46:06;;;;;;;5.07;0.60;;;8.40;99.90;;;;;;5094094;28;20127;-73
2023/03/01 12:48:53;;;;;;;3.78;0.70;;;8.40;99.90;;;;;;5093676;28;20101;-74
2023/03/01 12:51:24;;;;;;;3.42;0.70;;;8.50;99.90;;;;;;5093533;28;20731;-74
2023/03/01 12:53:54;;;;;;;1.08;0.43;;;8.60;99.90;;;;;;5093995;28;20028;-73
2023/03/01 12:56:34;;;;;;;2.78;0.60;;;8.60;99.90;;;;;;5093113;28;20038;-73
2023/03/01 12:59:00;;;;;;;1.17;0.60;;;8.60;99.90;;;;;;5093784;28;20378;-77
2023/03/01 13:01:53;;;;;;;4.40;0.75;;;8.60;99.90;;;;;;5093655;28;20024;-73
2023/03/01 13:04:36;;;;;;;1.52;0.70;;;8.60;99.90;;;;;;5093269;28;20523;-74
2023/03/01 13:07:29;;;;;;;1.83;0.60;;;8.70;99.90;;;;;;5093670;28;20108;-78
2023/03/01 13:10:01;;;;;;;;;;;8.70;99.90;;;;;;5094596;28;20039;-73
2023/03/01 13:12:49;;;;;;;0.88;0.30;;;8.70;99.90;;;;;;5093570;28;19904;-74
2023/03/01 13:15:23;;;;;;;3.72;0.63;;;8.50;99.90;;;;;;5093813;28;20036;-74
2023/03/01 13:18:27;;;;;;;1.95;0.70;;;8.50;99.90;;;;;;5093813;28;20050;-73
2023/03/01 13:20:54;;;;;;;;;;;8.50;99.90;;;;;;5094299;28;20048;-72
2023/03/01 13:23:20;;;;;;;4.60;0.80;;;8.50;99.90;;;;;;5091551;28;19923;-73